sensor_id;sensor_type;location;lat;lon;timestamp;temperature;humidity
37530;DHT22;23374;52.758;6.872;2023-02-28T00:00:38;4.50;1.00
37530;DHT22;23374;52.758;6.872;2023-02-28T00:03:00;4.50;1.00
37530;DHT22;23374;52.758;6.872;2023-02-28T00:05:23;4.50;1.00
37530;DHT22;23374;52.758;6.872;2023-02-28T00:07:46;4.40;24.30
37530;DHT22;23374;52.758;6.872;2023-02-28T00:10:13;4.40;99.90
37530;DHT22;23374;52.758;6.872;2023-02-28T00:12:36;4.40;19.70
37530;DHT22;23374;52.758;6.872;2023-02-28T00:14:57;4.40;37.50
37530;DHT22;23374;52.758;6.872;2023-02-28T00:17:18;4.40;99.90
37530;DHT22;23374;52.758;6.872;2023-02-28T00:19:41;4.40;99.90
37530;DHT22;23374;52.758;6.872;2023-02-28T00:22:02;4.40;99.90
37530;DHT22;23374;52.758;6.872;2023-02-28T00:24:21;4.40;99.90
37530;DHT22;23374;52.758;6.872;2023-02-28T00:26:43;4.40;99.90
37530;DHT22;23374;52.758;6.872;2023-02-28T00:29:04;4.40;99.90
37530;DHT22;23374;52.758;6.872;2023-02-28T00:31:24;4.40;99.90
37530;DHT22;23374;52.758;6.872;2023-02-28T00:33:44;4.40;99.90
37530;DHT22;23374;52.758;6.872;2023-02-28T00:36:10;4.50;99.90
37530;DHT22;23374;52.758;6.872;2023-02-28T00:38:41;4.50;99.90
37530;DHT22;23374;52.758;6.872;2023-02-28T00:41:10;4.50;99.90
37530;DHT22;23374;52.758;6.872;2023-02-28T00:43:34;4.50;1.00
37530;DHT22;23374;52.758;6.872;2023-02-28T00:45:55;4.50;99.90
37530;DHT22;23374;52.758;6.872;2023-02-28T00:48:16;4.50;99.90
37530;DHT22;23374;52.758;6.872;2023-02-28T00:50:36;4.50;99.90
37530;DHT22;23374;52.758;6.872;2023-02-28T00:53:55;4.50;99.90
37530;DHT22;23374;52.758;6.872;2023-02-28T00:56:15;4.50;99.90
37530;DHT22;23374;52.758;6.872;2023-02-28T00:58:35;4.50;99.90
37530;DHT22;23374;52.758;6.872;2023-02-28T01:00:56;4.50;99.90
37530;DHT22;23374;52.758;6.872;2023-02-28T01:03:18;4.60;99.90
37530;DHT22;23374;52.758;6.872;2023-02-28T01:05:39;4.60;99.90
37530;DHT22;23374;52.758;6.872;2023-02-28T01:08:03;4.60;99.90
37530;DHT22;23374;52.758;6.872;2023-02-28T01:10:23;4.60;99.90
37530;DHT22;23374;52.758;6.872;2023-02-28T01:12:43;4.60;99.90
37530;DHT22;23374;52.758;6.872;2023-02-28T01:15:05;4.60;99.90
37530;DHT22;23374;52.758;6.872;2023-02-28T01:17:23;4.60;99.90
37530;DHT22;23374;52.758;6.872;2023-02-28T01:19:44;4.60;99.90
37530;DHT22;23374;52.758;6.872;2023-02-28T01:22:06;4.60;1.00
37530;DHT22;23374;52.758;6.872;2023-02-28T01:24:28;4.60;1.00
37530;DHT22;23374;52.758;6.872;2023-02-28T01:26:48;4.60;1.00
37530;DHT22;23374;52.758;6.872;2023-02-28T01:29:08;4.60;1.00
37530;DHT22;23374;52.758;6.872;2023-02-28T01:31:29;4.60;1.00
37530;DHT22;23374;52.758;6.872;2023-02-28T01:33:49;4.70;1.00
37530;DHT22;23374;52.758;6.872;2023-02-28T01:36:17;4.60;1.00
37530;DHT22;23374;52.758;6.872;2023-02-28T01:38:39;4.60;1.00
37530;DHT22;23374;52.758;6.872;2023-02-28T01:41:00;4.70;1.00
37530;DHT22;23374;52.758;6.872;2023-02-28T01:43:29;4.70;1.00
37530;DHT22;23374;52.758;6.872;2023-02-28T01:45:53;4.70;1.00
37530;DHT22;23374;52.758;6.872;2023-02-28T01:48:15;4.60;1.00
37530;DHT22;23374;52.758;6.872;2023-02-28T01:50:39;4.60;1.00
37530;DHT22;23374;52.758;6.872;2023-02-28T01:54:12;4.60;1.00
37530;DHT22;23374;52.758;6.872;2023-02-28T01:56:36;4.60;99.90
37530;DHT22;23374;52.758;6.872;2023-02-28T01:58:57;4.60;99.90
37530;DHT22;23374;52.758;6.872;2023-02-28T02:01:20;4.60;99.90
37530;DHT22;23374;52.758;6.872;2023-02-28T02:03:41;4.60;99.90
37530;DHT22;23374;52.758;6.872;2023-02-28T02:06:02;4.60;99.90
37530;DHT22;23374;52.758;6.872;2023-02-28T02:08:26;4.60;99.90
37530;DHT22;23374;52.758;6.872;2023-02-28T02:11:00;4.60;99.90
37530;DHT22;23374;52.758;6.872;2023-02-28T02:14:18;4.60;99.90
37530;DHT22;23374;52.758;6.872;2023-02-28T02:17:15;4.60;8.00
37530;DHT22;23374;52.758;6.872;2023-02-28T02:24:11;4.50;1.00
37530;DHT22;23374;52.758;6.872;2023-02-28T02:31:29;4.50;1.00
37530;DHT22;23374;52.758;6.872;2023-02-28T02:36:42;4.50;1.00
37530;DHT22;23374;52.758;6.872;2023-02-28T02:40:18;4.50;42.50
37530;DHT22;23374;52.758;6.872;2023-02-28T02:44:23;4.50;78.40
37530;DHT22;23374;52.758;6.872;2023-02-28T02:46:47;4.50;31.00
37530;DHT22;23374;52.758;6.872;2023-02-28T02:49:15;4.50;71.80
37530;DHT22;23374;52.758;6.872;2023-02-28T02:51:37;4.50;44.30
37530;DHT22;23374;52.758;6.872;2023-02-28T02:54:22;4.50;26.40
37530;DHT22;23374;52.758;6.872;2023-02-28T02:56:47;4.50;36.90
37530;DHT22;23374;52.758;6.872;2023-02-28T02:59:11;4.50;1.90
37530;DHT22;23374;52.758;6.872;2023-02-28T03:01:34;4.50;1.00
37530;DHT22;23374;52.758;6.872;2023-02-28T03:04:09;4.50;1.00
37530;DHT22;23374;52.758;6.872;2023-02-28T03:06:30;4.50;46.00
37530;DHT22;23374;52.758;6.872;2023-02-28T03:08:51;4.50;67.60
37530;DHT22;23374;52.758;6.872;2023-02-28T03:11:14;4.40;45.50
37530;DHT22;23374;52.758;6.872;2023-02-28T03:14:13;4.40;99.90
37530;DHT22;23374;52.758;6.872;2023-02-28T03:27:33;4.40;1.00
37530;DHT22;23374;52.758;6.872;2023-02-28T03:30:33;4.40;99.90
37530;DHT22;23374;52.758;6.872;2023-02-28T03:36:55;4.30;1.00
37530;DHT22;23374;52.758;6.872;2023-02-28T03:39:25;4.30;99.90
37530;DHT22;23374;52.758;6.872;2023-02-28T03:41:59;4.30;99.90
37530;DHT22;23374;52.758;6.872;2023-02-28T03:44:44;4.20;99.90
37530;DHT22;23374;52.758;6.872;2023-02-28T03:47:32;4.30;1.00
37530;DHT22;23374;52.758;6.872;2023-02-28T03:50:12;4.30;1.00
37530;DHT22;23374;52.758;6.872;2023-02-28T03:52:47;4.30;99.90
37530;DHT22;23374;52.758;6.872;2023-02-28T03:55:12;4.30;99.90
37530;DHT22;23374;52.758;6.872;2023-02-28T03:58:27;4.20;99.90
37530;DHT22;23374;52.758;6.872;2023-02-28T04:01:08;4.20;99.90
37530;DHT22;23374;52.758;6.872;2023-02-28T04:03:29;4.20;99.90
37530;DHT22;23374;52.758;6.872;2023-02-28T04:05:55;4.20;99.90
37530;DHT22;23374;52.758;6.872;2023-02-28T04:08:15;4.20;99.90
37530;DHT22;23374;52.758;6.872;2023-02-28T04:10:36;4.30;99.90
37530;DHT22;23374;52.758;6.872;2023-02-28T04:12:56;4.30;99.90
37530;DHT22;23374;52.758;6.872;2023-02-28T04:15:16;4.30;99.90
37530;DHT22;23374;52.758;6.872;2023-02-28T04:17:37;4.30;99.90
37530;DHT22;23374;52.758;6.872;2023-02-28T04:19:57;4.30;99.60
37530;DHT22;23374;52.758;6.872;2023-02-28T04:22:23;4.30;56.60
37530;DHT22;23374;52.758;6.872;2023-02-28T04:24:46;4.30;14.90
37530;DHT22;23374;52.758;6.872;2023-02-28T04:27:06;4.30;19.50
37530;DHT22;23374;52.758;6.872;2023-02-28T04:29:31;4.30;13.60
37530;DHT22;23374;52.758;6.872;2023-02-28T04:31:52;4.40;92.50
37530;DHT22;23374;52.758;6.872;2023-02-28T04:34:18;4.40;95.10
37530;DHT22;23374;52.758;6.872;2023-02-28T04:36:39;4.40;90.10
37530;DHT22;23374;52.758;6.872;2023-02-28T04:38:59;4.40;94.40
37530;DHT22;23374;52.758;6.872;2023-02-28T04:41:20;4.40;95.90
37530;DHT22;23374;52.758;6.872;2023-02-28T04:43:41;4.40;1.00
37530;DHT22;23374;52.758;6.872;2023-02-28T04:46:04;4.40;1.00
37530;DHT22;23374;52.758;6.872;2023-02-28T04:48:27;4.40;66.80
37530;DHT22;23374;52.758;6.872;2023-02-28T04:50:48;4.40;99.90
37530;DHT22;23374;52.758;6.872;2023-02-28T04:53:08;4.40;99.90
37530;DHT22;23374;52.758;6.872;2023-02-28T04:55:31;4.40;99.90
37530;DHT22;23374;52.758;6.872;2023-02-28T04:57:51;4.40;99.90
37530;DHT22;23374;52.758;6.872;2023-02-28T05:00:12;4.40;48.20
37530;DHT22;23374;52.758;6.872;2023-02-28T05:02:35;4.40;33.90
37530;DHT22;23374;52.758;6.872;2023-02-28T05:04:56;4.40;18.50
37530;DHT22;23374;52.758;6.872;2023-02-28T05:07:16;4.40;1.00
37530;DHT22;23374;52.758;6.872;2023-02-28T05:09:37;4.40;1.00
37530;DHT22;23374;52.758;6.872;2023-02-28T05:13:19;4.40;1.00
37530;DHT22;23374;52.758;6.872;2023-02-28T05:15:39;4.40;1.00
37530;DHT22;23374;52.758;6.872;2023-02-28T05:18:16;4.40;1.00
37530;DHT22;23374;52.758;6.872;2023-02-28T05:20:36;4.40;1.00
37530;DHT22;23374;52.758;6.872;2023-02-28T05:22:59;4.40;1.00
37530;DHT22;23374;52.758;6.872;2023-02-28T05:25:21;4.40;1.00
37530;DHT22;23374;52.758;6.872;2023-02-28T05:27:42;4.40;1.00
37530;DHT22;23374;52.758;6.872;2023-02-28T05:30:04;4.40;1.00
37530;DHT22;23374;52.758;6.872;2023-02-28T05:32:26;4.40;1.00
37530;DHT22;23374;52.758;6.872;2023-02-28T05:34:46;4.40;1.00
37530;DHT22;23374;52.758;6.872;2023-02-28T05:37:12;4.40;1.00
37530;DHT22;23374;52.758;6.872;2023-02-28T05:39:33;4.30;1.00
37530;DHT22;23374;52.758;6.872;2023-02-28T05:41:53;4.30;1.00
37530;DHT22;23374;52.758;6.872;2023-02-28T05:44:13;4.30;1.00
37530;DHT22;23374;52.758;6.872;2023-02-28T05:46:35;4.30;1.00
37530;DHT22;23374;52.758;6.872;2023-02-28T05:48:55;4.30;1.00
37530;DHT22;23374;52.758;6.872;2023-02-28T05:51:17;4.30;1.00
37530;DHT22;23374;52.758;6.872;2023-02-28T05:53:38;4.30;1.00
37530;DHT22;23374;52.758;6.872;2023-02-28T05:55:59;4.30;1.00
37530;DHT22;23374;52.758;6.872;2023-02-28T05:58:19;4.30;1.00
37530;DHT22;23374;52.758;6.872;2023-02-28T06:00:40;4.30;1.00
37530;DHT22;23374;52.758;6.872;2023-02-28T06:03:00;4.30;1.00
37530;DHT22;23374;52.758;6.872;2023-02-28T06:05:22;4.30;1.00
37530;DHT22;23374;52.758;6.872;2023-02-28T06:07:43;4.30;1.00
37530;DHT22;23374;52.758;6.872;2023-02-28T06:10:04;4.30;1.00
37530;DHT22;23374;52.758;6.872;2023-02-28T06:12:25;4.30;1.00
37530;DHT22;23374;52.758;6.872;2023-02-28T06:14:45;4.30;1.00
37530;DHT22;23374;52.758;6.872;2023-02-28T06:17:05;4.30;1.00
37530;DHT22;23374;52.758;6.872;2023-02-28T06:19:26;4.30;1.00
37530;DHT22;23374;52.758;6.872;2023-02-28T06:21:49;4.30;1.00
37530;DHT22;23374;52.758;6.872;2023-02-28T06:24:12;4.30;1.00
37530;DHT22;23374;52.758;6.872;2023-02-28T06:26:33;4.30;1.00
37530;DHT22;23374;52.758;6.872;2023-02-28T06:28:54;4.30;1.00
37530;DHT22;23374;52.758;6.872;2023-02-28T06:31:17;4.30;1.00
37530;DHT22;23374;52.758;6.872;2023-02-28T06:33:39;4.30;1.00
37530;DHT22;23374;52.758;6.872;2023-02-28T06:35:59;4.30;1.00
37530;DHT22;23374;52.758;6.872;2023-02-28T06:38:28;4.30;1.00
37530;DHT22;23374;52.758;6.872;2023-02-28T06:40:59;4.30;1.00
37530;DHT22;23374;52.758;6.872;2023-02-28T06:43:20;4.30;1.00
37530;DHT22;23374;52.758;6.872;2023-02-28T06:45:43;4.20;1.00
37530;DHT22;23374;52.758;6.872;2023-02-28T06:48:04;4.30;1.00
37530;DHT22;23374;52.758;6.872;2023-02-28T06:50:25;4.30;1.00
37530;DHT22;23374;52.758;6.872;2023-02-28T06:52:46;4.30;1.00
37530;DHT22;23374;52.758;6.872;2023-02-28T06:55:08;4.30;1.00
37530;DHT22;23374;52.758;6.872;2023-02-28T06:57:30;4.40;1.00
37530;DHT22;23374;52.758;6.872;2023-02-28T06:59:51;4.40;1.00
37530;DHT22;23374;52.758;6.872;2023-02-28T07:02:11;4.40;1.00
37530;DHT22;23374;52.758;6.872;2023-02-28T07:04:31;4.40;1.00
37530;DHT22;23374;52.758;6.872;2023-02-28T07:06:57;4.50;99.90
37530;DHT22;23374;52.758;6.872;2023-02-28T07:09:17;4.50;99.90
37530;DHT22;23374;52.758;6.872;2023-02-28T07:11:39;4.50;99.90
37530;DHT22;23374;52.758;6.872;2023-02-28T07:14:02;4.50;99.90
37530;DHT22;23374;52.758;6.872;2023-02-28T07:16:24;4.50;99.90
37530;DHT22;23374;52.758;6.872;2023-02-28T07:18:44;4.50;99.90
37530;DHT22;23374;52.758;6.872;2023-02-28T07:21:08;4.50;99.90
37530;DHT22;23374;52.758;6.872;2023-02-28T07:23:31;4.50;99.90
37530;DHT22;23374;52.758;6.872;2023-02-28T07:25:51;4.50;99.90
37530;DHT22;23374;52.758;6.872;2023-02-28T07:28:13;4.50;99.90
37530;DHT22;23374;52.758;6.872;2023-02-28T07:30:35;4.40;99.90
37530;DHT22;23374;52.758;6.872;2023-02-28T07:32:55;4.40;99.90
37530;DHT22;23374;52.758;6.872;2023-02-28T07:35:17;4.40;99.90
37530;DHT22;23374;52.758;6.872;2023-02-28T07:37:38;4.30;99.90
37530;DHT22;23374;52.758;6.872;2023-02-28T07:39:58;4.30;99.90
37530;DHT22;23374;52.758;6.872;2023-02-28T07:42:20;4.30;99.90
37530;DHT22;23374;52.758;6.872;2023-02-28T07:44:41;4.30;99.90
37530;DHT22;23374;52.758;6.872;2023-02-28T07:47:03;4.30;99.90
37530;DHT22;23374;52.758;6.872;2023-02-28T07:49:24;4.30;99.90
37530;DHT22;23374;52.758;6.872;2023-02-28T07:51:45;4.30;99.90
37530;DHT22;23374;52.758;6.872;2023-02-28T07:54:11;4.30;99.90
37530;DHT22;23374;52.758;6.872;2023-02-28T07:56:31;4.30;99.90
37530;DHT22;23374;52.758;6.872;2023-02-28T07:58:52;4.30;99.90
37530;DHT22;23374;52.758;6.872;2023-02-28T08:01:13;4.30;99.90
37530;DHT22;23374;52.758;6.872;2023-02-28T08:03:34;4.30;99.90
37530;DHT22;23374;52.758;6.872;2023-02-28T08:05:56;4.40;99.90
37530;DHT22;23374;52.758;6.872;2023-02-28T08:08:17;4.40;99.90
37530;DHT22;23374;52.758;6.872;2023-02-28T08:10:38;4.50;99.90
37530;DHT22;23374;52.758;6.872;2023-02-28T08:13:00;4.50;99.90
37530;DHT22;23374;52.758;6.872;2023-02-28T08:15:20;4.50;99.90
37530;DHT22;23374;52.758;6.872;2023-02-28T08:17:41;4.60;67.70
37530;DHT22;23374;52.758;6.872;2023-02-28T08:20:08;4.60;1.00
37530;DHT22;23374;52.758;6.872;2023-02-28T08:22:31;4.60;1.00
37530;DHT22;23374;52.758;6.872;2023-02-28T08:24:51;4.70;1.00
37530;DHT22;23374;52.758;6.872;2023-02-28T08:27:11;4.70;1.00
37530;DHT22;23374;52.758;6.872;2023-02-28T08:29:32;4.70;1.00
37530;DHT22;23374;52.758;6.872;2023-02-28T08:31:53;4.70;1.00
37530;DHT22;23374;52.758;6.872;2023-02-28T08:34:15;4.70;1.00
37530;DHT22;23374;52.758;6.872;2023-02-28T08:36:37;4.70;11.20
37530;DHT22;23374;52.758;6.872;2023-02-28T08:38:58;4.80;53.80
37530;DHT22;23374;52.758;6.872;2023-02-28T08:41:20;4.70;97.00
37530;DHT22;23374;52.758;6.872;2023-02-28T08:43:41;4.80;99.90
37530;DHT22;23374;52.758;6.872;2023-02-28T08:46:01;4.80;99.90
37530;DHT22;23374;52.758;6.872;2023-02-28T08:48:24;4.80;99.90
37530;DHT22;23374;52.758;6.872;2023-02-28T08:50:59;4.80;72.70
37530;DHT22;23374;52.758;6.872;2023-02-28T08:53:21;4.80;1.00
37530;DHT22;23374;52.758;6.872;2023-02-28T08:55:42;4.80;1.00
37530;DHT22;23374;52.758;6.872;2023-02-28T08:58:02;4.80;1.00
37530;DHT22;23374;52.758;6.872;2023-02-28T09:00:23;4.80;1.00
37530;DHT22;23374;52.758;6.872;2023-02-28T09:02:44;4.90;1.00
37530;DHT22;23374;52.758;6.872;2023-02-28T09:05:06;4.90;1.00
37530;DHT22;23374;52.758;6.872;2023-02-28T09:07:28;4.90;1.00
37530;DHT22;23374;52.758;6.872;2023-02-28T09:10:01;4.80;1.00
37530;DHT22;23374;52.758;6.872;2023-02-28T09:12:23;4.80;1.00
37530;DHT22;23374;52.758;6.872;2023-02-28T09:14:44;4.80;1.00
37530;DHT22;23374;52.758;6.872;2023-02-28T09:17:04;4.90;1.00
37530;DHT22;23374;52.758;6.872;2023-02-28T09:19:25;4.80;1.00
37530;DHT22;23374;52.758;6.872;2023-02-28T09:21:47;4.80;1.00
37530;DHT22;23374;52.758;6.872;2023-02-28T09:24:07;4.90;99.90
37530;DHT22;23374;52.758;6.872;2023-02-28T09:26:32;5.00;99.90
37530;DHT22;23374;52.758;6.872;2023-02-28T09:28:54;5.00;99.90
37530;DHT22;23374;52.758;6.872;2023-02-28T09:31:23;5.10;99.90
37530;DHT22;23374;52.758;6.872;2023-02-28T09:33:44;5.10;99.90
37530;DHT22;23374;52.758;6.872;2023-02-28T09:36:05;5.10;99.90
37530;DHT22;23374;52.758;6.872;2023-02-28T09:38:28;5.20;99.90
37530;DHT22;23374;52.758;6.872;2023-02-28T09:40:55;5.20;99.90
37530;DHT22;23374;52.758;6.872;2023-02-28T09:43:20;5.20;99.90
37530;DHT22;23374;52.758;6.872;2023-02-28T09:45:59;5.30;99.90
37530;DHT22;23374;52.758;6.872;2023-02-28T09:48:31;5.30;99.90
37530;DHT22;23374;52.758;6.872;2023-02-28T09:51:00;5.20;21.40
37530;DHT22;23374;52.758;6.872;2023-02-28T09:53:41;5.20;99.90
37530;DHT22;23374;52.758;6.872;2023-02-28T09:56:12;5.10;94.20
37530;DHT22;23374;52.758;6.872;2023-02-28T10:01:30;5.00;1.00
37530;DHT22;23374;52.758;6.872;2023-02-28T10:04:03;5.00;1.00
37530;DHT22;23374;52.758;6.872;2023-02-28T10:06:48;5.10;47.70
37530;DHT22;23374;52.758;6.872;2023-02-28T10:09:29;5.20;1.00
37530;DHT22;23374;52.758;6.872;2023-02-28T10:11:53;5.20;1.00
37530;DHT22;23374;52.758;6.872;2023-02-28T10:14:21;5.10;29.20
37530;DHT22;23374;52.758;6.872;2023-02-28T10:16:55;5.10;56.20
37530;DHT22;23374;52.758;6.872;2023-02-28T10:19:35;5.20;1.00
37530;DHT22;23374;52.758;6.872;2023-02-28T10:22:29;5.30;69.00
37530;DHT22;23374;52.758;6.872;2023-02-28T10:24:58;5.30;1.00
37530;DHT22;23374;52.758;6.872;2023-02-28T10:27:32;5.30;44.90
37530;DHT22;23374;52.758;6.872;2023-02-28T10:29:57;5.20;1.00
37530;DHT22;23374;52.758;6.872;2023-02-28T10:32:30;5.20;99.90
37530;DHT22;23374;52.758;6.872;2023-02-28T10:35:19;5.20;9.00
37530;DHT22;23374;52.758;6.872;2023-02-28T10:37:45;5.20;1.00
37530;DHT22;23374;52.758;6.872;2023-02-28T10:40:34;5.30;29.10
37530;DHT22;23374;52.758;6.872;2023-02-28T10:43:05;5.40;3.90
37530;DHT22;23374;52.758;6.872;2023-02-28T10:45:36;5.40;18.00
37530;DHT22;23374;52.758;6.872;2023-02-28T10:48:32;5.50;1.00
37530;DHT22;23374;52.758;6.872;2023-02-28T10:50:54;5.50;1.00
37530;DHT22;23374;52.758;6.872;2023-02-28T10:53:53;5.60;1.00
37530;DHT22;23374;52.758;6.872;2023-02-28T10:56:23;5.70;1.00
37530;DHT22;23374;52.758;6.872;2023-02-28T10:59:03;5.70;1.00
37530;DHT22;23374;52.758;6.872;2023-02-28T11:01:43;5.70;1.00
37530;DHT22;23374;52.758;6.872;2023-02-28T11:04:37;5.80;13.70
37530;DHT22;23374;52.758;6.872;2023-02-28T11:07:18;5.90;1.00
37530;DHT22;23374;52.758;6.872;2023-02-28T11:09:56;5.90;1.00
37530;DHT22;23374;52.758;6.872;2023-02-28T11:12:37;5.90;1.00
37530;DHT22;23374;52.758;6.872;2023-02-28T11:15:05;5.90;1.00
37530;DHT22;23374;52.758;6.872;2023-02-28T11:17:40;6.00;1.00
37530;DHT22;23374;52.758;6.872;2023-02-28T11:20:06;6.10;28.00
37530;DHT22;23374;52.758;6.872;2023-02-28T11:22:33;6.10;1.00
37530;DHT22;23374;52.758;6.872;2023-02-28T11:24:57;6.00;1.00
37530;DHT22;23374;52.758;6.872;2023-02-28T11:27:57;6.10;1.00
37530;DHT22;23374;52.758;6.872;2023-02-28T11:30:39;6.10;1.00
37530;DHT22;23374;52.758;6.872;2023-02-28T11:33:29;6.20;1.00
37530;DHT22;23374;52.758;6.872;2023-02-28T11:35:51;6.20;1.00
37530;DHT22;23374;52.758;6.872;2023-02-28T11:38:12;6.30;25.50
37530;DHT22;23374;52.758;6.872;2023-02-28T11:52:36;6.40;1.00
37530;DHT22;23374;52.758;6.872;2023-02-28T11:55:14;6.30;1.00
37530;DHT22;23374;52.758;6.872;2023-02-28T12:06:57;6.40;1.00
37530;DHT22;23374;52.758;6.872;2023-02-28T12:09:47;6.40;1.00
37530;DHT22;23374;52.758;6.872;2023-02-28T12:14:17;6.40;1.00
37530;DHT22;23374;52.758;6.872;2023-02-28T12:27:02;6.50;1.00
37530;DHT22;23374;52.758;6.872;2023-02-28T12:29:41;6.40;1.00
37530;DHT22;23374;52.758;6.872;2023-02-28T12:32:26;6.50;1.00
37530;DHT22;23374;52.758;6.872;2023-02-28T12:38:45;6.60;1.00
37530;DHT22;23374;52.758;6.872;2023-02-28T12:45:26;6.70;1.00
37530;DHT22;23374;52.758;6.872;2023-02-28T12:48:02;6.60;1.00
37530;DHT22;23374;52.758;6.872;2023-02-28T12:50:25;6.70;1.00
37530;DHT22;23374;52.758;6.872;2023-02-28T12:53:30;6.80;1.00
37530;DHT22;23374;52.758;6.872;2023-02-28T12:59:48;6.80;1.00
37530;DHT22;23374;52.758;6.872;2023-02-28T13:09:19;6.80;1.00
37530;DHT22;23374;52.758;6.872;2023-02-28T13:11:48;6.90;1.00
37530;DHT22;23374;52.758;6.872;2023-02-28T13:14:38;6.90;1.00
37530;DHT22;23374;52.758;6.872;2023-02-28T13:17:14;6.90;1.00
37530;DHT22;23374;52.758;6.872;2023-02-28T13:21:32;6.90;1.00
37530;DHT22;23374;52.758;6.872;2023-02-28T13:24:04;6.90;1.00
37530;DHT22;23374;52.758;6.872;2023-02-28T13:29:58;7.00;1.00
37530;DHT22;23374;52.758;6.872;2023-02-28T13:32:32;7.10;1.00
37530;DHT22;23374;52.758;6.872;2023-02-28T13:35:38;7.10;1.00
37530;DHT22;23374;52.758;6.872;2023-02-28T13:38:22;7.10;1.00
37530;DHT22;23374;52.758;6.872;2023-02-28T13:40:43;7.10;1.00
37530;DHT22;23374;52.758;6.872;2023-02-28T13:43:08;7.20;1.00
37530;DHT22;23374;52.758;6.872;2023-02-28T13:45:29;7.20;1.00
37530;DHT22;23374;52.758;6.872;2023-02-28T13:48:26;7.30;1.00
37530;DHT22;23374;52.758;6.872;2023-02-28T13:50:51;7.30;1.00
37530;DHT22;23374;52.758;6.872;2023-02-28T13:54:03;7.30;1.00
37530;DHT22;23374;52.758;6.872;2023-02-28T13:57:14;7.20;1.00
37530;DHT22;23374;52.758;6.872;2023-02-28T14:02:41;7.20;1.00
37530;DHT22;23374;52.758;6.872;2023-02-28T14:05:15;7.30;1.00
37530;DHT22;23374;52.758;6.872;2023-02-28T14:07:49;7.30;1.00
37530;DHT22;23374;52.758;6.872;2023-02-28T14:10:45;7.30;1.00
37530;DHT22;23374;52.758;6.872;2023-02-28T14:16:02;7.30;1.00
37530;DHT22;23374;52.758;6.872;2023-02-28T14:18:36;7.30;1.00
37530;DHT22;23374;52.758;6.872;2023-02-28T14:24:43;7.30;1.00
37530;DHT22;23374;52.758;6.872;2023-02-28T14:36:36;7.30;1.00
37530;DHT22;23374;52.758;6.872;2023-02-28T14:39:24;7.30;1.00
37530;DHT22;23374;52.758;6.872;2023-02-28T14:41:46;7.30;1.00
37530;DHT22;23374;52.758;6.872;2023-02-28T14:44:25;7.40;1.00
37530;DHT22;23374;52.758;6.872;2023-02-28T14:46:53;7.40;1.00
37530;DHT22;23374;52.758;6.872;2023-02-28T14:49:42;7.40;1.00
37530;DHT22;23374;52.758;6.872;2023-02-28T14:52:17;7.40;1.00
37530;DHT22;23374;52.758;6.872;2023-02-28T14:54:40;7.40;1.00
37530;DHT22;23374;52.758;6.872;2023-02-28T14:57:02;7.40;1.00
37530;DHT22;23374;52.758;6.872;2023-02-28T14:59:33;7.50;1.00
37530;DHT22;23374;52.758;6.872;2023-02-28T15:08:46;7.50;1.00
37530;DHT22;23374;52.758;6.872;2023-02-28T15:11:17;7.60;1.00
37530;DHT22;23374;52.758;6.872;2023-02-28T15:13:53;7.60;1.00
37530;DHT22;23374;52.758;6.872;2023-02-28T15:16:38;7.70;1.00
37530;DHT22;23374;52.758;6.872;2023-02-28T15:19:13;7.80;1.00
37530;DHT22;23374;52.758;6.872;2023-02-28T15:21:43;7.90;1.00
37530;DHT22;23374;52.758;6.872;2023-02-28T15:27:32;8.00;1.00
37530;DHT22;23374;52.758;6.872;2023-02-28T15:29:59;8.10;1.00
37530;DHT22;23374;52.758;6.872;2023-02-28T15:32:38;8.10;1.00
37530;DHT22;23374;52.758;6.872;2023-02-28T15:35:38;8.10;1.00
37530;DHT22;23374;52.758;6.872;2023-02-28T15:38:16;8.10;1.00
37530;DHT22;23374;52.758;6.872;2023-02-28T15:40:51;8.10;1.00
37530;DHT22;23374;52.758;6.872;2023-02-28T15:43:23;8.10;1.00
37530;DHT22;23374;52.758;6.872;2023-02-28T15:46:14;8.20;1.00
37530;DHT22;23374;52.758;6.872;2023-02-28T15:48:43;8.20;1.00
37530;DHT22;23374;52.758;6.872;2023-02-28T15:51:48;8.20;1.00
37530;DHT22;23374;52.758;6.872;2023-02-28T15:54:20;8.20;1.00
37530;DHT22;23374;52.758;6.872;2023-02-28T15:56:51;8.20;1.00
37530;DHT22;23374;52.758;6.872;2023-02-28T15:59:21;8.20;1.00
37530;DHT22;23374;52.758;6.872;2023-02-28T16:02:14;8.10;1.00
37530;DHT22;23374;52.758;6.872;2023-02-28T16:04:54;8.10;1.00
37530;DHT22;23374;52.758;6.872;2023-02-28T16:07:15;8.10;1.00
37530;DHT22;23374;52.758;6.872;2023-02-28T16:09:35;8.10;1.00
37530;DHT22;23374;52.758;6.872;2023-02-28T16:12:02;8.10;1.00
37530;DHT22;23374;52.758;6.872;2023-02-28T16:14:26;8.00;1.00
37530;DHT22;23374;52.758;6.872;2023-02-28T16:16:54;7.90;1.00
37530;DHT22;23374;52.758;6.872;2023-02-28T16:19:15;7.80;1.00
37530;DHT22;23374;52.758;6.872;2023-02-28T16:21:35;7.80;1.00
37530;DHT22;23374;52.758;6.872;2023-02-28T16:23:56;7.70;1.00
37530;DHT22;23374;52.758;6.872;2023-02-28T16:26:24;7.60;1.00
37530;DHT22;23374;52.758;6.872;2023-02-28T16:28:47;7.60;1.00
37530;DHT22;23374;52.758;6.872;2023-02-28T16:31:06;7.50;1.00
37530;DHT22;23374;52.758;6.872;2023-02-28T16:33:27;7.40;1.00
37530;DHT22;23374;52.758;6.872;2023-02-28T16:35:49;7.40;1.00
37530;DHT22;23374;52.758;6.872;2023-02-28T16:38:10;7.30;1.00
37530;DHT22;23374;52.758;6.872;2023-02-28T16:40:34;7.30;1.00
37530;DHT22;23374;52.758;6.872;2023-02-28T16:43:01;7.30;1.00
37530;DHT22;23374;52.758;6.872;2023-02-28T16:45:27;7.30;1.00
37530;DHT22;23374;52.758;6.872;2023-02-28T16:47:48;7.20;1.00
37530;DHT22;23374;52.758;6.872;2023-02-28T16:50:25;7.20;1.00
37530;DHT22;23374;52.758;6.872;2023-02-28T16:52:46;7.20;1.00
37530;DHT22;23374;52.758;6.872;2023-02-28T16:55:08;7.10;1.00
37530;DHT22;23374;52.758;6.872;2023-02-28T16:57:28;7.10;1.00
37530;DHT22;23374;52.758;6.872;2023-02-28T16:59:50;7.00;1.00
37530;DHT22;23374;52.758;6.872;2023-02-28T17:02:15;7.00;1.00
37530;DHT22;23374;52.758;6.872;2023-02-28T17:04:37;6.90;1.00
37530;DHT22;23374;52.758;6.872;2023-02-28T17:06:58;6.90;1.00
37530;DHT22;23374;52.758;6.872;2023-02-28T17:09:22;6.90;1.00
37530;DHT22;23374;52.758;6.872;2023-02-28T17:11:45;6.90;1.00
37530;DHT22;23374;52.758;6.872;2023-02-28T17:14:12;6.80;1.00
37530;DHT22;23374;52.758;6.872;2023-02-28T17:16:37;6.80;1.00
37530;DHT22;23374;52.758;6.872;2023-02-28T17:19:06;6.70;1.00
37530;DHT22;23374;52.758;6.872;2023-02-28T17:21:30;6.60;1.00
37530;DHT22;23374;52.758;6.872;2023-02-28T17:23:51;6.60;1.00
37530;DHT22;23374;52.758;6.872;2023-02-28T17:26:20;6.50;1.00
37530;DHT22;23374;52.758;6.872;2023-02-28T17:28:43;6.50;1.00
37530;DHT22;23374;52.758;6.872;2023-02-28T17:31:10;6.40;1.00
37530;DHT22;23374;52.758;6.872;2023-02-28T17:33:31;6.30;1.00
37530;DHT22;23374;52.758;6.872;2023-02-28T17:35:56;6.30;1.00
37530;DHT22;23374;52.758;6.872;2023-02-28T17:38:19;6.30;1.00
37530;DHT22;23374;52.758;6.872;2023-02-28T17:40:40;6.20;1.00
37530;DHT22;23374;52.758;6.872;2023-02-28T17:43:00;6.30;1.00
37530;DHT22;23374;52.758;6.872;2023-02-28T17:45:20;6.20;1.00
37530;DHT22;23374;52.758;6.872;2023-02-28T17:47:45;6.20;1.00
37530;DHT22;23374;52.758;6.872;2023-02-28T17:50:06;6.10;1.00
37530;DHT22;23374;52.758;6.872;2023-02-28T17:52:27;6.00;1.00
37530;DHT22;23374;52.758;6.872;2023-02-28T17:54:49;6.00;1.00
37530;DHT22;23374;52.758;6.872;2023-02-28T17:57:14;5.90;1.00